Giove Jet — IJNX — position and weather

sailwx.info

Track history (hours):
 
Tides and Currents Weather Stations Pressure Air Temp Water Temp Dewpoint Dewpoint Depression Visibility Wind Speed Wind Dir Waves Ship Positions

Giove Jet

Last reported at 2015-Jul-07 11:33 UTC. Time now 2015-Jul-07 13:14 UTC.
Position N 40°47' E 014°11'.

Length 33 m; draft 1.2 m.

MMSI: 247049500.

Date/timePositionNaut miles runAvg speedWind from/ knotsBaromVisibWave heightAir tempDewpointWater temp
2015-Jul-07 11:33N 40°47' E 014°11'1111.2
2015-Jul-07 10:33N 40°45' E 013°56'0 0.0
2015-Jul-07 09:33N 40°45' E 013°56'0 0.0
2015-Jul-07 08:33N 40°45' E 013°56'0 0.0
2015-Jul-07 07:33N 40°45' E 013°56'0 0.0
2015-Jul-07 06:33N 40°45' E 013°56'9 0.6
2015-Jul-06 16:34N 40°47' E 014°08'7 7.0
2015-Jul-06 15:30N 40°50' E 014°17'1617.2
2015-Jul-06 14:33N 40°45' E 013°56'13 6.6
2015-Jul-06 12:33N 40°48' E 014°13'1313.3
2015-Jul-06 11:33N 40°45' E 013°56'1512.3
2015-Jul-06 10:21N 40°49' E 014°15'2 1.6
2015-Jul-06 09:23N 40°50' E 014°17'1619.7
2015-Jul-06 08:33N 40°45' E 013°56'1612.4
2015-Jul-06 07:16N 40°50' E 014°16'912.5
2015-Jul-06 06:34N 40°46' E 014°06'2 2.2
2015-Jul-06 05:33N 40°47' E 014°08'7 0.2
2015-Jul-04 15:33N 40°49' E 014°17'1616.4
2015-Jul-04 14:33N 40°45' E 013°56'13 6.6
2015-Jul-04 12:34N 40°48' E 014°13'1313.2
2015-Jul-04 11:33N 40°45' E 013°56'1412.7
2015-Jul-04 10:28N 40°50' E 014°13'2 2.3
2015-Jul-04 09:24N 40°50' E 014°17'1619.3
2015-Jul-04 08:33N 40°45' E 013°56'1111.0
2015-Jul-04 07:34N 40°47' E 014°11'5 0.3
2015-Jul-03 15:33N 40°49' E 014°17'1616.3
2015-Jul-03 14:33N 40°45' E 013°56'4 3.7
2015-Jul-03 13:33N 40°44' E 013°52'0 0.0
2015-Jul-03 12:33N 40°44' E 013°52'5 4.6
2015-Jul-03 11:33N 40°46' E 013°57'1414.5
2015-Jul-03 10:33N 40°50' E 014°15'1414.5
2015-Jul-03 09:33N 40°46' E 013°57'4 4.5
2015-Jul-03 08:34N 40°44' E 013°52'1918.7
2015-Jul-03 07:33N 40°50' E 014°15'3 2.9
2015-Jul-03 06:32N 40°48' E 014°13'8 7.7
2015-Jul-03 05:34N 40°47' E 014°03'9 0.6
2015-Jul-02 15:21N 40°49' E 014°14'1114.4
2015-Jul-02 14:33N 40°39' E 014°22'1 1.0
2015-Jul-02 13:34N 40°40' E 014°21'1110.9
2015-Jul-02 12:33N 40°50' E 014°16'1312.9
2015-Jul-02 11:31N 40°38' E 014°23'4 4.0
2015-Jul-02 10:33N 40°37' E 014°18'4 3.9
2015-Jul-02 09:33N 40°38' E 014°23'1312.5
2015-Jul-02 08:33N 40°50' E 014°16'1313.2
2015-Jul-02 07:33N 40°38' E 014°23'14 7.2
2015-Jul-02 05:33N 40°47' E 014°07'9 8.6
2015-Jul-02 04:34N 40°45' E 013°56'9 0.7
2015-Jul-01 16:33N 40°47' E 014°08'7 6.9
2015-Jul-01 15:28N 40°50' E 014°17'1617.7
2015-Jul-01 14:33N 40°45' E 013°56'14 6.9
2015-Jul-01 12:33N 40°49' E 014°14'1413.9
2015-Jul-01 11:33N 40°45' E 013°56'1412.4
2015-Jul-01 10:26N 40°50' E 014°13'2 0.6
2015-Jul-01 06:33N 40°47' E 014°12'9 0.6
2015-Jun-30 16:33N 40°46' E 014°01'1312.0
2015-Jun-30 15:30N 40°49' E 014°17'1617.1
2015-Jun-30 14:33N 40°45' E 013°56'13 6.4
2015-Jun-30 12:32N 40°48' E 014°13'2 0.8
2015-Jun-30 10:24N 40°49' E 014°14'2 0.5
2015-Jun-30 06:33N 40°48' E 014°13'1312.7
2015-Jun-30 05:33N 40°45' E 013°56'7 0.6
2015-Jun-29 16:33N 40°46' E 014°06'8 8.1
2015-Jun-29 15:33N 40°49' E 014°16'1615.5
2015-Jun-29 14:33N 40°45' E 013°56'13 6.3
2015-Jun-29 12:33N 40°48' E 014°13'1312.9
2015-Jun-29 11:34N 40°45' E 013°56'1412.1
2015-Jun-29 10:24N 40°50' E 014°14'2 2.3
2015-Jun-29 09:21N 40°50' E 014°17'1620.3
2015-Jun-29 08:33N 40°45' E 013°56'5 5.1
2015-Jun-29 07:33N 40°46' E 014°03'1 0.7
2015-Jun-29 05:34N 40°46' E 014°04'6 6.3
2015-Jun-29 04:33N 40°45' E 013°56'0 0.0
2015-Jun-28 16:18N 40°45' E 013°56'0 0.0
2015-Jun-28 15:31N 40°45' E 013°56'0 0.0
2015-Jun-28 14:31N 40°45' E 013°56'13 6.4
2015-Jun-28 12:32N 40°48' E 014°13'1312.8
2015-Jun-28 11:33N 40°45' E 013°56'1412.4
2015-Jun-28 10:26N 40°50' E 014°13'3 2.5
2015-Jun-28 09:22N 40°49' E 014°17'1619.0
2015-Jun-28 08:31N 40°45' E 013°56'9 8.8
2015-Jun-28 07:33N 40°46' E 014°07'  
Track history (hours):
 
Tides and Currents Weather Stations Pressure Air Temp Water Temp Dewpoint Dewpoint Depression Visibility Wind Speed Wind Dir Waves Ship Positions

Giove Jet

Last reported at 2015-Jul-07 11:33 UTC. Time now 2015-Jul-07 13:14 UTC.
Position N 40°47' E 014°11'.

Length 33 m; draft 1.2 m.

MMSI: 247049500.

Date/timePositionNaut miles runAvg speedWind from/ knotsBaromVisibWave heightAir tempDewpointWater temp
2015-Jul-07 11:33N 40°47' E 014°11'1111.2
2015-Jul-07 10:33N 40°45' E 013°56'0 0.0
2015-Jul-07 09:33N 40°45' E 013°56'0 0.0
2015-Jul-07 08:33N 40°45' E 013°56'0 0.0
2015-Jul-07 07:33N 40°45' E 013°56'0 0.0
2015-Jul-07 06:33N 40°45' E 013°56'9 0.6
2015-Jul-06 16:34N 40°47' E 014°08'7 7.0
2015-Jul-06 15:30N 40°50' E 014°17'1617.2
2015-Jul-06 14:33N 40°45' E 013°56'13 6.6
2015-Jul-06 12:33N 40°48' E 014°13'1313.3
2015-Jul-06 11:33N 40°45' E 013°56'1512.3
2015-Jul-06 10:21N 40°49' E 014°15'2 1.6
2015-Jul-06 09:23N 40°50' E 014°17'1619.7
2015-Jul-06 08:33N 40°45' E 013°56'1612.4
2015-Jul-06 07:16N 40°50' E 014°16'912.5
2015-Jul-06 06:34N 40°46' E 014°06'2 2.2
2015-Jul-06 05:33N 40°47' E 014°08'7 0.2
2015-Jul-04 15:33N 40°49' E 014°17'1616.4
2015-Jul-04 14:33N 40°45' E 013°56'13 6.6
2015-Jul-04 12:34N 40°48' E 014°13'1313.2
2015-Jul-04 11:33N 40°45' E 013°56'1412.7
2015-Jul-04 10:28N 40°50' E 014°13'2 2.3
2015-Jul-04 09:24N 40°50' E 014°17'1619.3
2015-Jul-04 08:33N 40°45' E 013°56'1111.0
2015-Jul-04 07:34N 40°47' E 014°11'5 0.3
2015-Jul-03 15:33N 40°49' E 014°17'1616.3
2015-Jul-03 14:33N 40°45' E 013°56'4 3.7
2015-Jul-03 13:33N 40°44' E 013°52'0 0.0
2015-Jul-03 12:33N 40°44' E 013°52'5 4.6
2015-Jul-03 11:33N 40°46' E 013°57'1414.5
2015-Jul-03 10:33N 40°50' E 014°15'1414.5
2015-Jul-03 09:33N 40°46' E 013°57'4 4.5
2015-Jul-03 08:34N 40°44' E 013°52'1918.7
2015-Jul-03 07:33N 40°50' E 014°15'3 2.9
2015-Jul-03 06:32N 40°48' E 014°13'8 7.7
2015-Jul-03 05:34N 40°47' E 014°03'9 0.6
2015-Jul-02 15:21N 40°49' E 014°14'1114.4
2015-Jul-02 14:33N 40°39' E 014°22'1 1.0
2015-Jul-02 13:34N 40°40' E 014°21'1110.9
2015-Jul-02 12:33N 40°50' E 014°16'1312.9
2015-Jul-02 11:31N 40°38' E 014°23'4 4.0
2015-Jul-02 10:33N 40°37' E 014°18'4 3.9
2015-Jul-02 09:33N 40°38' E 014°23'1312.5
2015-Jul-02 08:33N 40°50' E 014°16'1313.2
2015-Jul-02 07:33N 40°38' E 014°23'14 7.2
2015-Jul-02 05:33N 40°47' E 014°07'9 8.6
2015-Jul-02 04:34N 40°45' E 013°56'9 0.7
2015-Jul-01 16:33N 40°47' E 014°08'7 6.9
2015-Jul-01 15:28N 40°50' E 014°17'1617.7
2015-Jul-01 14:33N 40°45' E 013°56'14 6.9
2015-Jul-01 12:33N 40°49' E 014°14'1413.9
2015-Jul-01 11:33N 40°45' E 013°56'1412.4
2015-Jul-01 10:26N 40°50' E 014°13'2 0.6
2015-Jul-01 06:33N 40°47' E 014°12'9 0.6
2015-Jun-30 16:33N 40°46' E 014°01'1312.0
2015-Jun-30 15:30N 40°49' E 014°17'1617.1
2015-Jun-30 14:33N 40°45' E 013°56'13 6.4
2015-Jun-30 12:32N 40°48' E 014°13'2 0.8
2015-Jun-30 10:24N 40°49' E 014°14'2 0.5
2015-Jun-30 06:33N 40°48' E 014°13'1312.7
2015-Jun-30 05:33N 40°45' E 013°56'7 0.6
2015-Jun-29 16:33N 40°46' E 014°06'8 8.1
2015-Jun-29 15:33N 40°49' E 014°16'1615.5
2015-Jun-29 14:33N 40°45' E 013°56'13 6.3
2015-Jun-29 12:33N 40°48' E 014°13'1312.9
2015-Jun-29 11:34N 40°45' E 013°56'1412.1
2015-Jun-29 10:24N 40°50' E 014°14'2 2.3
2015-Jun-29 09:21N 40°50' E 014°17'1620.3
2015-Jun-29 08:33N 40°45' E 013°56'5 5.1
2015-Jun-29 07:33N 40°46' E 014°03'1 0.7
2015-Jun-29 05:34N 40°46' E 014°04'6 6.3
2015-Jun-29 04:33N 40°45' E 013°56'0 0.0
2015-Jun-28 16:18N 40°45' E 013°56'0 0.0
2015-Jun-28 15:31N 40°45' E 013°56'0 0.0
2015-Jun-28 14:31N 40°45' E 013°56'13 6.4
2015-Jun-28 12:32N 40°48' E 014°13'1312.8
2015-Jun-28 11:33N 40°45' E 013°56'1412.4
2015-Jun-28 10:26N 40°50' E 014°13'3 2.5
2015-Jun-28 09:22N 40°49' E 014°17'1619.0
2015-Jun-28 08:31N 40°45' E 013°56'9 8.8
2015-Jun-28 07:33N 40°46' E 014°07'  

Dump ship's entire track history